Decatur Airport
KDEC : now visible

Airfield :











YOU CAN JOIN US ON...

 
LOGIN :

Register | Disclaimer

   EN    FR    IT 

 









Legend :    VFR   Marginal VFR   IFR   Intensive IFR   Very Intensive IFR
Visi :
Ceiling :
>= 8 km
>= 3000ft
5 to 8 km
1000 to 3000 ft
1500m to 5 km
500 to 1000 ft
800 to 1500m
200 to 500 ft
< 800m
< 200 ft
Symbols :   Thunderstorms  Fog  Heavy snow  Heavy precipitations  Wind > 20 kt






- Airport Elevation : 682 ft
- IATA code : DEC


KDEC - Decatur

CURRENT METAR :
  • 250254Z 10013KT 10SM BKN075 20/13 A2998 RMK AO2 SLP148 T02000133 56004

EXPIRED METARs :
  • 250154Z 10012KT 10SM BKN080 21/13 A2998 RMK AO2 SLP148 T02060128
  • 250054Z 10013KT 10SM OVC080 22/12 A2998 RMK AO2 SLP150 T02170122

TAF KDEC
Valid from the 25 at 00:00 until the 26 at 00:00 UTC


242320Z 2500/2524 10012G22KT P6SM SCT050 BKN100
FM250700 11012G21KT P6SM VCSH BKN060
FM250900 12012G21KT P6SM -SHRA VCTS BKN020CB
FM251200 14013G23KT 5SM -SHRA BR VCTS OVC008CB
FM251600 16015G24KT 6SM -SHRA BR BKN010
FM251700 16016G25KT P6SM VCTS OVC013CB
FM252100 17016G27KT P6SM -SHRA VCTS BKN050CB
KZKC FIR / North America



MET'MAP, your aeronautical weather chart ! - Copyright ORBIFLY December 2007 - Disclaimer

ORBIFLY MET'MAP TEAM :

Programming & Development : Alexandra Zaïnal
Original concept : Baudouin d'Aumeries
Technical & hardware support : Manuel Goepfert
Assistance : Marc-Olivier Méhu

Contact : metmap@orbifly.com




SOURCES & CREDITS :

   NOAA       Earth
Advisory